Time;durP1;ratioP1;P1;durP2;ratioP2;P2;SDS_P1;SDS_P2;PMS_P1;PMS_P2;Temp;Humidity;BMP_temperature;BMP_pressure;BME280_temperature;BME280_humidity;BME280_pressure;Samples;Min_cycle;Max_cycle;Signal;HPM_P1;HPM_P2
2021/12/07 00:00:47;;;;;;;5.10;4.60;;;6.90;55.90;;;;;;4966271;28;20250;-50
2021/12/07 00:03:13;;;;;;;4.97;4.17;;;6.70;55.60;;;;;;4960840;28;20493;-49
2021/12/07 00:05:39;;;;;;;4.60;4.10;;;6.80;55.60;;;;;;4968069;28;20897;-51
2021/12/07 00:08:04;;;;;;;3.90;3.50;;;6.80;55.60;;;;;;4964359;28;20196;-49
2021/12/07 00:10:30;;;;;;;3.97;3.57;;;6.60;55.90;;;;;;4965691;28;20541;-51
2021/12/07 00:12:57;;;;;;;4.70;3.83;;;6.90;55.80;;;;;;4964677;28;20210;-48
2021/12/07 00:15:24;;;;;;;7.23;4.70;;;7.10;55.40;;;;;;4959636;28;20558;-51
2021/12/07 00:17:50;;;;;;;4.00;3.60;;;7.20;55.20;;;;;;4968523;28;20450;-47
2021/12/07 00:20:19;;;;;;;4.60;4.10;;;7.40;54.90;;;;;;4965099;28;20510;-50
2021/12/07 00:22:50;;;;;;;4.63;3.90;;;7.70;54.50;;;;;;4966842;28;20205;-48
2021/12/07 00:25:16;;;;;;;4.70;4.20;;;7.80;54.70;;;;;;4961476;28;20927;-48
2021/12/07 00:27:42;;;;;;;4.23;3.83;;;7.80;53.50;;;;;;4970800;28;21066;-47
2021/12/07 00:30:11;;;;;;;5.20;4.07;;;7.70;53.60;;;;;;4961484;28;20446;-50
2021/12/07 00:32:42;;;;;;;3.23;3.03;;;7.70;53.50;;;;;;4962610;28;20215;-52
2021/12/07 00:35:33;;;;;;;5.63;4.13;;;7.40;53.60;;;;;;4969299;28;20528;-49
2021/12/07 00:38:04;;;;;;;4.20;3.60;;;7.60;54.40;;;;;;4965426;28;20529;-49
2021/12/07 00:40:29;;;;;;;6.30;4.40;;;7.70;53.60;;;;;;4964957;28;20557;-48
2021/12/07 00:42:55;;;;;;;4.43;3.83;;;7.40;54.00;;;;;;4965035;28;20521;-51
2021/12/07 00:45:22;;;;;;;5.30;4.30;;;7.40;54.20;;;;;;4961685;28;20566;-51
2021/12/07 00:47:49;;;;;;;4.90;3.97;;;7.60;54.10;;;;;;4963637;28;20207;-48
2021/12/07 00:50:18;;;;;;;5.13;4.53;;;7.70;53.90;;;;;;4965387;28;20439;-51
2021/12/07 00:52:44;;;;;;;4.60;4.20;;;7.80;54.10;;;;;;4964282;28;20775;-50
2021/12/07 00:55:13;;;;;;;5.00;4.50;;;7.80;54.10;;;;;;4962543;28;20494;-49
2021/12/07 00:57:40;;;;;;;4.47;3.90;;;8.00;54.00;;;;;;4962252;28;20303;-48
2021/12/07 01:00:12;;;;;;;4.33;3.87;;;8.00;53.70;;;;;;4963259;28;20801;-49
2021/12/07 01:02:38;;;;;;;4.13;3.73;;;8.00;53.60;;;;;;4967932;28;20455;-48
2021/12/07 01:05:13;;;;;;;4.13;3.60;;;7.80;54.10;;;;;;4965750;28;20461;-51
2021/12/07 01:26:40;;;;;;;5.10;4.60;;;7.50;58.20;;;;;;4970406;28;20450;-52
2021/12/07 01:29:06;;;;;;;4.30;3.80;;;7.60;58.10;;;;;;4967209;28;20446;-52
2021/12/07 01:31:43;;;;;;;4.90;4.10;;;7.60;58.30;;;;;;4967719;28;20208;-50
2021/12/07 01:39:50;;;;;;;4.30;3.90;;;7.80;58.20;;;;;;4966933;28;21080;-48
2021/12/07 01:45:50;;;;;;;5.57;4.57;;;8.00;58.00;;;;;;4964548;28;20477;-48
2021/12/07 01:51:14;;;;;;;4.47;3.70;;;7.60;58.60;;;;;;4965900;28;20541;-49
2021/12/07 01:57:47;;;;;;;6.47;3.67;;;7.80;58.70;;;;;;4954807;28;20541;-49
2021/12/07 02:01:07;;;;;;;4.47;3.57;;;7.80;58.30;;;;;;4967642;28;20439;-48
2021/12/07 02:03:33;;;;;;;4.53;4.03;;;7.80;58.50;;;;;;4966415;28;20269;-47
2021/12/07 02:05:58;;;;;;;3.80;3.40;;;7.70;58.40;;;;;;4966571;28;20474;-48
2021/12/07 02:08:24;;;;;;;3.50;3.20;;;7.70;58.70;;;;;;4966172;28;20466;-48
2021/12/07 02:10:54;;;;;;;3.53;3.03;;;7.80;58.70;;;;;;4965359;28;20667;-51
2021/12/07 02:15:57;;;;;;;4.10;2.90;;;7.70;58.90;;;;;;4963159;28;20501;-47
2021/12/07 02:18:24;;;;;;;3.40;3.10;;;7.50;59.40;;;;;;4964548;28;20442;-47
2021/12/07 02:20:50;;;;;;;3.40;2.97;;;7.40;60.50;;;;;;4963236;28;20698;-49
2021/12/07 02:23:16;;;;;;;3.67;3.23;;;7.50;60.80;;;;;;4961820;28;20442;-48
2021/12/07 02:25:43;;;;;;;3.80;2.80;;;7.70;60.70;;;;;;4962270;28;20467;-50
2021/12/07 02:28:13;;;;;;;3.23;2.80;;;7.70;60.50;;;;;;4967248;28;20479;-49
2021/12/07 02:30:41;;;;;;;3.20;2.87;;;7.80;60.50;;;;;;4965308;28;20927;-49
2021/12/07 02:33:07;;;;;;;3.50;2.70;;;7.80;60.50;;;;;;4964156;28;20529;-47
2021/12/07 02:35:32;;;;;;;3.00;2.70;;;7.90;60.70;;;;;;4962567;28;20881;-47
2021/12/07 02:37:59;;;;;;;4.03;3.10;;;7.70;60.70;;;;;;4962135;28;20442;-47
2021/12/07 02:40:25;;;;;;;3.10;2.60;;;7.80;61.10;;;;;;4968185;28;20555;-47
2021/12/07 02:42:51;;;;;;;2.40;2.20;;;7.60;61.60;;;;;;4965910;28;20451;-48
2021/12/07 02:45:19;;;;;;;3.10;2.80;;;7.50;61.40;;;;;;4963863;28;20446;-47
2021/12/07 02:47:45;;;;;;;4.40;2.83;;;7.60;61.70;;;;;;4969770;28;20470;-48
2021/12/07 02:50:11;;;;;;;3.70;3.33;;;7.60;61.80;;;;;;4966421;28;20449;-48
2021/12/07 02:52:37;;;;;;;3.33;2.63;;;7.60;61.90;;;;;;4966603;28;20319;-47
2021/12/07 02:55:05;;;;;;;2.57;2.37;;;7.30;62.30;;;;;;4963350;28;20581;-47
2021/12/07 02:57:31;;;;;;;3.07;2.60;;;7.50;62.90;;;;;;4968969;28;21783;-47
2021/12/07 03:00:06;;;;;;;3.43;2.70;;;7.50;62.70;;;;;;4965691;28;20478;-48
2021/12/07 03:02:37;;;;;;;2.43;2.23;;;7.30;63.30;;;;;;4972403;28;20565;-47
2021/12/07 03:05:20;;;;;;;5.43;2.80;;;7.30;64.00;;;;;;4968551;28;20443;-48
2021/12/07 03:26:37;;;;;;;2.90;2.17;;;8.10;62.90;;;;;;4963707;28;20484;-48
2021/12/07 03:29:03;;;;;;;2.70;2.03;;;8.20;62.60;;;;;;4966723;28;20471;-48
2021/12/07 03:31:30;;;;;;;3.07;2.30;;;8.30;62.40;;;;;;4970631;28;20199;-49
2021/12/07 03:33:58;;;;;;;2.17;1.97;;;8.40;62.10;;;;;;4972011;28;20201;-48
2021/12/07 03:36:24;;;;;;;2.77;2.37;;;8.40;61.70;;;;;;4969896;28;21061;-47
2021/12/07 03:38:51;;;;;;;2.83;2.30;;;8.40;61.80;;;;;;4968676;28;20486;-49
2021/12/07 03:41:17;;;;;;;5.20;2.30;;;8.50;61.60;;;;;;4969133;28;20848;-48
2021/12/07 03:43:44;;;;;;;2.30;2.10;;;8.60;61.60;;;;;;4963835;28;20432;-47
2021/12/07 03:46:10;;;;;;;2.43;2.20;;;8.60;61.70;;;;;;4965450;28;20961;-48
2021/12/07 03:48:36;;;;;;;2.23;2.03;;;8.50;61.80;;;;;;4960799;28;20450;-48
2021/12/07 03:51:03;;;;;;;2.50;2.30;;;8.60;61.90;;;;;;4964518;28;20466;-49
2021/12/07 03:53:29;;;;;;;3.30;2.40;;;8.60;61.90;;;;;;4963059;28;20443;-48
2021/12/07 03:55:56;;;;;;;2.93;2.40;;;8.60;61.70;;;;;;4960933;28;20894;-49
2021/12/07 03:58:22;;;;;;;2.93;2.63;;;8.70;61.40;;;;;;4964224;28;20959;-47
2021/12/07 04:00:48;;;;;;;2.30;2.10;;;8.70;61.50;;;;;;4958714;28;20434;-47
2021/12/07 04:03:16;;;;;;;2.77;2.50;;;8.70;61.70;;;;;;4968431;28;20451;-50
2021/12/07 04:05:45;;;;;;;2.93;1.87;;;8.70;61.60;;;;;;4968196;28;20461;-47
2021/12/07 04:08:25;;;;;;;2.10;2.00;;;8.70;61.40;;;;;;4968961;28;20533;-49
2021/12/07 04:10:51;;;;;;;2.60;2.20;;;8.70;61.40;;;;;;4965173;28;20478;-51
2021/12/07 04:13:17;;;;;;;2.40;2.20;;;8.50;61.90;;;;;;4963669;28;20435;-48
2021/12/07 04:15:43;;;;;;;2.87;2.00;;;8.40;62.20;;;;;;4965513;28;20493;-48
2021/12/07 04:18:10;;;;;;;3.90;2.10;;;8.20;62.70;;;;;;4963267;28;20836;-48
2021/12/07 04:20:36;;;;;;;3.00;2.20;;;8.40;62.40;;;;;;4963069;28;20715;-48
2021/12/07 04:23:04;;;;;;;3.77;2.97;;;8.30;62.40;;;;;;4964911;28;20450;-51
2021/12/07 04:25:30;;;;;;;2.10;1.90;;;8.30;62.90;;;;;;4963854;28;20942;-48
2021/12/07 04:27:56;;;;;;;2.13;1.93;;;8.40;63.00;;;;;;4964222;28;20476;-50
2021/12/07 04:30:26;;;;;;;3.10;2.47;;;8.40;63.20;;;;;;4961600;28;20537;-50
2021/12/07 04:32:53;;;;;;;2.10;1.80;;;8.40;63.30;;;;;;4962773;28;20738;-47
2021/12/07 04:35:20;;;;;;;2.10;1.93;;;8.50;63.20;;;;;;4962144;28;20490;-51
2021/12/07 04:37:46;;;;;;;1.80;1.40;;;8.40;63.80;;;;;;4966592;28;20939;-47
2021/12/07 04:40:27;;;;;;;2.40;1.57;;;8.30;63.80;;;;;;4965890;28;20518;-48
2021/12/07 04:42:53;;;;;;;1.43;1.33;;;8.30;64.30;;;;;;4959848;28;20199;-49
2021/12/07 04:45:31;;;;;;;2.03;1.83;;;8.40;64.60;;;;;;4962496;28;20454;-48
2021/12/07 04:58:54;;;;;;;2.70;2.30;;;8.60;63.00;;;;;;4969588;28;20545;-48
2021/12/07 05:01:21;;;;;;;2.80;1.90;;;8.70;62.70;;;;;;4968794;28;20466;-48
2021/12/07 05:03:48;;;;;;;4.80;2.60;;;8.70;62.60;;;;;;4973527;28;20269;-50
2021/12/07 05:06:15;;;;;;;3.03;2.10;;;8.80;62.50;;;;;;4965199;28;20442;-48
2021/12/07 05:08:44;;;;;;;2.17;1.73;;;8.70;62.50;;;;;;4970857;28;20435;-49
2021/12/07 05:40:12;;;;;;;2.03;1.93;;;8.70;61.80;;;;;;4975077;28;20470;-48
2021/12/07 05:42:39;;;;;;;2.97;1.97;;;8.70;61.60;;;;;;4967965;28;20438;-47
2021/12/07 05:45:08;;;;;;;3.57;2.03;;;8.70;61.40;;;;;;4972908;28;20434;-48
2021/12/07 05:47:33;;;;;;;2.30;1.90;;;8.80;61.30;;;;;;4968711;28;20798;-49
2021/12/07 05:49:59;;;;;;;2.57;2.03;;;8.80;61.30;;;;;;4969057;28;20526;-48
2021/12/07 05:52:25;;;;;;;21.97;19.70;;;8.80;61.40;;;;;;4969915;28;20632;-49
2021/12/07 05:54:50;;;;;;;10.07;9.17;;;8.90;61.40;;;;;;4968347;28;20235;-47
2021/12/07 05:57:16;;;;;;;9.70;8.70;;;8.80;61.30;;;;;;4966001;28;20679;-49
2021/12/07 05:59:42;;;;;;;7.03;6.33;;;8.80;61.40;;;;;;4967726;28;20223;-48
2021/12/07 06:02:08;;;;;;;5.77;4.33;;;8.90;61.40;;;;;;4972072;28;20274;-47
2021/12/07 06:04:33;;;;;;;5.03;3.57;;;8.90;61.40;;;;;;4972775;28;20537;-49
2021/12/07 06:06:59;;;;;;;3.70;2.40;;;8.90;61.40;;;;;;4966115;28;20632;-47
2021/12/07 06:09:26;;;;;;;3.63;2.70;;;9.00;61.40;;;;;;4967284;28;20227;-47
2021/12/07 06:11:53;;;;;;;2.83;1.90;;;8.90;61.20;;;;;;4968481;28;20269;-47
2021/12/07 06:14:20;;;;;;;5.00;2.53;;;8.90;60.80;;;;;;4965175;28;20499;-47
2021/12/07 06:16:47;;;;;;;7.43;2.20;;;8.90;61.30;;;;;;4970528;28;20494;-47
2021/12/07 06:19:13;;;;;;;2.60;2.33;;;9.20;64.30;;;;;;4970714;28;20450;-47
2021/12/07 06:21:39;;;;;;;3.30;2.23;;;9.50;64.60;;;;;;4970267;28;20444;-47
2021/12/07 06:24:05;;;;;;;3.17;2.47;;;9.90;64.30;;;;;;4967334;28;20196;-48
2021/12/07 06:26:33;;;;;;;2.60;2.23;;;10.10;62.40;;;;;;4967377;28;20947;-47
2021/12/07 06:28:59;;;;;;;5.30;2.13;;;10.30;61.30;;;;;;4965481;28;21205;-47
2021/12/07 06:31:25;;;;;;;5.93;3.20;;;10.50;59.90;;;;;;4960903;28;20525;-50
2021/12/07 06:33:50;;;;;;;4.00;2.97;;;10.70;59.30;;;;;;4965843;28;20439;-49
2021/12/07 06:36:16;;;;;;;4.00;2.50;;;10.80;58.70;;;;;;4964512;28;20240;-48
2021/12/07 06:38:42;;;;;;;3.90;2.20;;;10.80;58.30;;;;;;4964284;28;20208;-47
2021/12/07 06:41:07;;;;;;;5.93;2.40;;;10.90;57.50;;;;;;4960230;28;20226;-48
2021/12/07 06:43:33;;;;;;;5.70;2.73;;;10.90;57.40;;;;;;4961602;28;20940;-47
2021/12/07 06:45:59;;;;;;;5.23;2.17;;;10.90;57.10;;;;;;4960805;28;20195;-49
2021/12/07 06:48:25;;;;;;;5.83;2.43;;;11.00;57.00;;;;;;4965967;28;20930;-47
2021/12/07 06:50:51;;;;;;;4.60;1.67;;;11.00;56.80;;;;;;4971498;28;20203;-48
2021/12/07 06:53:16;;;;;;;3.03;1.93;;;11.00;56.60;;;;;;4962560;28;20207;-49
2021/12/07 06:55:42;;;;;;;1.80;1.60;;;10.90;56.10;;;;;;4958937;28;21055;-47
2021/12/07 06:58:08;;;;;;;3.30;1.40;;;10.90;56.20;;;;;;4960011;28;20576;-48
2021/12/07 07:00:34;;;;;;;3.73;1.70;;;10.70;56.00;;;;;;4957351;28;20192;-48
2021/12/07 07:03:00;;;;;;;4.23;2.00;;;10.40;55.80;;;;;;4962941;28;20291;-48
2021/12/07 07:05:25;;;;;;;5.13;1.67;;;10.30;56.40;;;;;;4965448;28;21014;-47
2021/12/07 07:07:51;;;;;;;4.10;1.83;;;10.30;56.70;;;;;;4961437;28;20566;-47
2021/12/07 07:10:18;;;;;;;3.53;2.07;;;10.20;56.50;;;;;;4967525;28;20199;-47
2021/12/07 07:12:45;;;;;;;4.00;1.70;;;10.10;56.70;;;;;;4963792;28;20184;-50
2021/12/07 07:15:13;;;;;;;3.90;2.30;;;10.20;57.00;;;;;;4968475;28;20481;-47
2021/12/07 07:17:39;;;;;;;3.47;1.63;;;10.30;57.70;;;;;;4963978;28;20493;-47
2021/12/07 07:20:06;;;;;;;5.50;1.60;;;10.40;57.10;;;;;;4968953;28;20446;-47
2021/12/07 07:22:32;;;;;;;3.67;1.90;;;10.40;57.00;;;;;;4960156;28;20435;-48
2021/12/07 07:24:58;;;;;;;4.10;1.53;;;9.80;57.20;;;;;;4966500;28;20487;-47
2021/12/07 07:27:24;;;;;;;5.37;1.40;;;9.40;59.00;;;;;;4963600;28;20226;-48
2021/12/07 07:29:50;;;;;;;5.40;1.70;;;9.10;60.00;;;;;;4963991;28;20203;-47
2021/12/07 07:32:15;;;;;;;3.70;2.00;;;8.70;61.20;;;;;;4961815;28;20439;-47
2021/12/07 07:34:41;;;;;;;2.67;1.53;;;8.50;62.50;;;;;;4965169;28;20509;-47
2021/12/07 07:37:07;;;;;;;2.60;1.20;;;8.60;63.00;;;;;;4955791;28;20729;-47
2021/12/07 07:39:32;;;;;;;5.93;2.07;;;8.40;63.00;;;;;;4960640;28;20202;-48
2021/12/07 07:41:58;;;;;;;4.23;2.30;;;8.30;63.40;;;;;;4964434;28;20643;-47
2021/12/07 07:44:24;;;;;;;4.37;1.90;;;8.60;63.50;;;;;;4965771;28;20458;-47
2021/12/07 07:46:50;;;;;;;6.37;1.63;;;8.80;62.90;;;;;;4965178;28;20202;-47
2021/12/07 07:49:15;;;;;;;4.20;2.23;;;9.10;62.50;;;;;;4968383;28;20664;-47
2021/12/07 07:51:41;;;;;;;6.00;2.00;;;9.30;61.60;;;;;;4954118;28;20663;-49
2021/12/07 07:54:07;;;;;;;3.20;2.00;;;9.60;61.20;;;;;;4953656;28;20296;-49
2021/12/07 07:56:33;;;;;;;5.83;2.07;;;9.80;60.80;;;;;;4954233;28;20239;-48
2021/12/07 07:58:59;;;;;;;2.33;1.93;;;10.00;59.40;;;;;;4961642;28;21113;-47
2021/12/07 08:01:30;;;;;;;4.87;2.60;;;10.10;59.00;;;;;;4960109;28;20428;-49
2021/12/07 08:03:56;;;;;;;5.27;2.10;;;10.30;58.80;;;;;;4952469;28;20911;-47
2021/12/07 08:06:21;;;;;;;7.70;2.70;;;10.50;58.50;;;;;;4953534;28;20427;-47
2021/12/07 08:08:47;;;;;;;6.33;2.53;;;10.70;58.30;;;;;;4972694;28;20423;-51
2021/12/07 08:11:13;;;;;;;5.00;2.10;;;10.80;57.80;;;;;;4963838;28;20194;-47
2021/12/07 08:13:40;;;;;;;3.77;2.00;;;10.80;57.40;;;;;;4968057;28;20192;-48
2021/12/07 08:16:06;;;;;;;7.20;2.80;;;10.70;57.00;;;;;;4953327;28;20479;-51
2021/12/07 08:18:31;;;;;;;4.57;2.57;;;10.40;57.10;;;;;;4972080;28;20809;-47
2021/12/07 08:20:57;;;;;;;7.73;2.93;;;10.40;57.10;;;;;;4972224;28;20210;-47
2021/12/07 08:23:23;;;;;;;4.93;3.00;;;10.60;57.40;;;;;;4972966;28;20547;-47
2021/12/07 08:25:49;;;;;;;4.07;2.50;;;10.60;57.40;;;;;;4953450;28;20263;-50
2021/12/07 08:28:19;;;;;;;9.53;3.23;;;10.80;57.10;;;;;;4953676;28;20196;-47
2021/12/07 08:30:46;;;;;;;3.70;2.47;;;10.90;56.80;;;;;;4953758;28;20443;-47
2021/12/07 08:33:12;;;;;;;4.83;2.13;;;11.00;56.60;;;;;;4972201;28;20450;-49
2021/12/07 08:35:39;;;;;;;9.50;2.80;;;11.20;56.70;;;;;;4972702;28;20494;-48
2021/12/07 08:38:07;;;;;;;6.10;2.20;;;11.30;56.50;;;;;;4973280;28;20434;-47
2021/12/07 08:40:34;;;;;;;2.80;1.90;;;11.40;56.00;;;;;;4971998;28;20426;-48
2021/12/07 08:43:00;;;;;;;3.33;2.60;;;11.50;55.90;;;;;;4972525;28;20474;-47
2021/12/07 08:45:30;;;;;;;6.40;2.70;;;11.50;55.60;;;;;;4972482;28;20458;-47
2021/12/07 08:47:56;;;;;;;7.03;2.40;;;11.60;55.60;;;;;;4972985;28;20525;-47
2021/12/07 08:50:24;;;;;;;4.30;2.50;;;11.70;55.50;;;;;;4971637;28;20526;-47
2021/12/07 08:52:53;;;;;;;5.10;3.27;;;11.70;55.70;;;;;;4972853;28;20431;-47
2021/12/07 09:00:53;;;;;;;5.47;2.80;;;11.80;56.00;;;;;;4960790;28;20527;-47
2021/12/07 09:03:20;;;;;;;7.73;3.00;;;11.60;55.00;;;;;;4959893;28;20454;-51
2021/12/07 09:05:47;;;;;;;6.63;2.50;;;11.60;54.80;;;;;;4969773;28;20522;-49
2021/12/07 09:08:12;;;;;;;5.83;2.53;;;11.60;55.00;;;;;;4965892;28;20434;-47
2021/12/07 09:10:38;;;;;;;7.87;2.77;;;11.50;54.90;;;;;;4964566;28;20438;-48
2021/12/07 09:13:04;;;;;;;4.80;2.40;;;11.40;55.20;;;;;;4965755;28;20231;-47
2021/12/07 09:15:29;;;;;;;5.77;1.60;;;11.30;55.00;;;;;;4968081;28;20674;-47
2021/12/07 09:17:55;;;;;;;5.37;1.90;;;10.80;54.90;;;;;;4960646;28;20188;-47
2021/12/07 09:20:21;;;;;;;12.70;2.00;;;10.70;56.00;;;;;;4964555;28;20192;-47
2021/12/07 09:22:48;;;;;;;4.10;1.87;;;10.60;56.30;;;;;;4964224;28;20687;-48
2021/12/07 09:25:14;;;;;;;6.37;1.63;;;10.60;56.00;;;;;;4960235;28;20200;-47
2021/12/07 09:27:40;;;;;;;3.77;1.60;;;10.40;56.10;;;;;;4967457;28;20439;-47
2021/12/07 09:30:12;;;;;;;3.17;1.80;;;10.60;56.60;;;;;;4969252;28;20434;-55
2021/12/07 09:32:38;;;;;;;3.97;1.60;;;10.40;56.30;;;;;;4961720;28;20208;-56
2021/12/07 09:35:06;;;;;;;6.47;1.73;;;10.40;56.30;;;;;;4962752;28;20462;-52
2021/12/07 09:37:32;;;;;;;5.97;2.63;;;10.40;56.30;;;;;;4962544;28;20213;-54
2021/12/07 09:39:58;;;;;;;5.40;1.60;;;10.40;56.30;;;;;;4963674;28;20559;-51
2021/12/07 09:42:23;;;;;;;8.20;2.07;;;10.40;56.40;;;;;;4968139;28;20191;-53
2021/12/07 09:44:49;;;;;;;7.90;1.80;;;10.30;55.80;;;;;;4970068;28;20192;-54
2021/12/07 09:47:15;;;;;;;5.40;2.43;;;10.20;56.00;;;;;;4973216;28;20191;-54
2021/12/07 09:49:40;;;;;;;4.77;1.50;;;10.20;56.30;;;;;;4967715;28;20224;-54
2021/12/07 09:52:06;;;;;;;5.13;2.20;;;10.10;55.80;;;;;;4960115;28;20202;-53
2021/12/07 09:54:32;;;;;;;2.13;1.20;;;10.40;56.00;;;;;;4965226;28;20318;-54
2021/12/07 09:56:58;;;;;;;3.50;2.07;;;10.30;55.50;;;;;;4971321;28;20751;-51
2021/12/07 09:59:23;;;;;;;3.80;2.43;;;10.30;55.80;;;;;;4969201;28;20990;-51
2021/12/07 10:01:49;;;;;;;5.00;1.90;;;10.40;55.60;;;;;;4964776;28;20207;-51
2021/12/07 10:04:17;;;;;;;3.50;1.57;;;10.50;55.60;;;;;;4967543;28;20195;-54
2021/12/07 10:06:43;;;;;;;6.57;1.40;;;10.50;54.80;;;;;;4966168;28;20438;-53
2021/12/07 10:09:08;;;;;;;4.20;1.50;;;10.60;55.10;;;;;;4969967;28;20434;-54
2021/12/07 10:11:35;;;;;;;3.90;1.57;;;10.70;54.50;;;;;;4965604;28;20187;-54
2021/12/07 10:14:01;;;;;;;9.47;2.00;;;10.80;54.70;;;;;;4959166;28;20255;-52
2021/12/07 10:16:26;;;;;;;6.20;1.73;;;10.60;53.70;;;;;;4963227;28;20510;-55
2021/12/07 10:18:52;;;;;;;7.17;2.20;;;10.30;53.20;;;;;;4969793;28;20498;-54
2021/12/07 10:21:24;;;;;;;7.17;1.63;;;10.30;53.80;;;;;;4966364;28;20203;-52
2021/12/07 10:23:59;;;;;;;4.70;1.47;;;10.40;53.90;;;;;;4971082;28;20449;-51
2021/12/07 10:26:39;;;;;;;3.60;1.90;;;10.20;54.10;;;;;;4962956;28;20493;-54
2021/12/07 10:29:10;;;;;;;3.50;1.40;;;10.40;54.20;;;;;;4962675;28;20522;-51
2021/12/07 10:31:46;;;;;;;1.73;1.23;;;10.40;53.80;;;;;;4962362;28;20458;-54
2021/12/07 10:34:24;;;;;;;3.67;1.70;;;10.60;54.10;;;;;;4963209;28;20455;-51
2021/12/07 10:36:56;;;;;;;3.40;1.47;;;10.70;53.70;;;;;;4963696;28;20500;-53
2021/12/07 10:39:34;;;;;;;4.30;1.90;;;10.70;53.60;;;;;;4964920;28;21011;-51
2021/12/07 10:42:04;;;;;;;4.23;1.87;;;10.50;52.20;;;;;;4958145;28;20451;-54
2021/12/07 10:44:32;;;;;;;2.00;1.17;;;10.30;52.50;;;;;;4963670;28;20450;-52
2021/12/07 10:47:01;;;;;;;5.00;1.50;;;10.00;51.90;;;;;;4960291;28;20811;-54
2021/12/07 10:49:29;;;;;;;5.10;2.30;;;9.90;52.80;;;;;;4962586;28;20450;-52
2021/12/07 10:52:04;;;;;;;5.03;1.23;;;9.70;53.00;;;;;;4963537;28;20449;-54
2021/12/07 10:54:36;;;;;;;3.93;1.60;;;9.40;53.00;;;;;;4965573;28;20477;-53
2021/12/07 10:57:05;;;;;;;3.67;1.90;;;9.40;53.50;;;;;;4962074;28;21114;-52
2021/12/07 10:59:32;;;;;;;2.70;1.20;;;9.90;53.00;;;;;;4961917;28;20931;-52
2021/12/07 11:01:58;;;;;;;5.60;1.37;;;10.40;51.90;;;;;;4964952;28;20435;-50
2021/12/07 11:04:36;;;;;;;3.30;1.50;;;10.80;50.30;;;;;;4967448;28;20453;-50
2021/12/07 11:07:18;;;;;;;5.37;1.23;;;11.10;49.20;;;;;;4962045;28;20519;-51
2021/12/07 11:10:07;;;;;;;2.53;1.13;;;11.20;49.30;;;;;;4963872;28;20518;-51
2021/12/07 11:12:52;;;;;;;4.70;1.30;;;11.40;47.90;;;;;;4964502;28;20479;-51
2021/12/07 11:15:24;;;;;;;3.63;1.40;;;11.60;48.10;;;;;;4971381;28;20501;-55
2021/12/07 11:17:52;;;;;;;2.80;1.17;;;11.50;47.80;;;;;;4972294;28;20449;-51
2021/12/07 11:20:18;;;;;;;5.97;1.70;;;11.40;47.90;;;;;;4969886;28;20457;-54
2021/12/07 11:22:52;;;;;;;1.60;1.50;;;11.60;48.00;;;;;;4960824;28;20467;-51
2021/12/07 11:25:53;;;;;;;6.10;1.43;;;11.60;48.40;;;;;;4965095;28;20474;-51
2021/12/07 11:31:20;;;;;;;3.87;1.17;;;11.70;48.50;;;;;;4962760;28;20437;-54
2021/12/07 11:33:48;;;;;;;7.53;1.53;;;12.00;49.00;;;;;;4969027;28;20807;-52
2021/12/07 11:36:18;;;;;;;4.23;1.40;;;12.10;47.40;;;;;;4967607;28;20826;-51
2021/12/07 11:38:44;;;;;;;3.97;1.27;;;12.00;46.20;;;;;;4967526;28;20437;-52
2021/12/07 11:41:16;;;;;;;3.10;1.50;;;11.70;45.60;;;;;;4964150;28;20442;-51
2021/12/07 11:44:00;;;;;;;3.70;1.87;;;11.50;46.90;;;;;;4969331;28;20431;-52
2021/12/07 11:46:28;;;;;;;3.90;1.00;;;11.60;47.60;;;;;;4959299;28;20922;-55
2021/12/07 11:49:07;;;;;;;4.37;1.60;;;11.80;47.50;;;;;;4969805;28;20446;-53
2021/12/07 11:51:34;;;;;;;3.40;1.10;;;11.80;46.30;;;;;;4967206;28;20493;-55
2021/12/07 11:54:00;;;;;;;2.43;1.40;;;11.70;46.50;;;;;;4964647;28;20487;-55
2021/12/07 11:56:26;;;;;;;2.80;1.20;;;11.60;46.10;;;;;;4966958;28;20486;-55
2021/12/07 11:58:51;;;;;;;5.80;1.17;;;11.50;46.40;;;;;;4964900;28;20200;-54
2021/12/07 12:01:17;;;;;;;3.63;1.10;;;11.50;46.10;;;;;;4965303;28;20440;-55
2021/12/07 12:03:43;;;;;;;2.57;1.13;;;11.60;46.70;;;;;;4966859;28;20192;-56
2021/12/07 12:06:09;;;;;;;5.20;1.47;;;11.60;45.90;;;;;;4967631;28;20195;-56
2021/12/07 12:08:35;;;;;;;3.37;1.10;;;11.60;45.10;;;;;;4969939;28;20287;-54
2021/12/07 12:11:03;;;;;;;2.30;1.30;;;11.70;45.50;;;;;;4968911;28;20431;-55
2021/12/07 12:13:51;;;;;;;2.70;1.27;;;11.80;45.00;;;;;;4966847;28;21299;-56
2021/12/07 12:16:51;;;;;;;3.90;1.37;;;12.10;45.00;;;;;;4970637;28;20561;-56
2021/12/07 12:19:29;;;;;;;2.37;1.20;;;12.20;45.40;;;;;;4967836;28;20478;-55
2021/12/07 12:22:02;;;;;;;4.20;1.23;;;12.10;44.00;;;;;;4969626;28;20442;-56
2021/12/07 12:24:53;;;;;;;4.13;1.10;;;12.20;43.90;;;;;;4968103;28;20938;-56
2021/12/07 12:27:22;;;;;;;4.53;1.53;;;12.50;43.70;;;;;;4966551;28;20478;-56
2021/12/07 12:29:52;;;;;;;4.23;1.07;;;12.60;43.60;;;;;;4969428;28;20449;-56
2021/12/07 12:32:33;;;;;;;2.07;1.00;;;12.50;43.90;;;;;;4971837;28;20438;-56
2021/12/07 12:35:00;;;;;;;5.53;1.60;;;12.60;43.20;;;;;;4962296;28;20452;-55
2021/12/07 12:37:29;;;;;;;6.63;1.70;;;12.70;43.30;;;;;;4963104;28;20492;-54
2021/12/07 12:40:05;;;;;;;3.23;1.40;;;12.70;42.00;;;;;;4963301;28;20455;-56
2021/12/07 12:42:46;;;;;;;1.20;1.10;;;12.90;41.90;;;;;;4965700;28;20473;-55
2021/12/07 12:45:35;;;;;;;3.20;1.20;;;12.70;41.80;;;;;;4970256;28;20445;-56
2021/12/07 12:48:17;;;;;;;5.80;1.37;;;12.80;41.60;;;;;;4966305;28;20454;-54
2021/12/07 12:50:42;;;;;;;1.80;0.80;;;12.80;41.20;;;;;;4966930;28;20847;-52
2021/12/07 12:53:11;;;;;;;6.53;2.03;;;12.50;42.10;;;;;;4969911;28;20441;-56
2021/12/07 12:55:42;;;;;;;5.33;1.50;;;12.30;42.60;;;;;;4962451;28;20691;-55
2021/12/07 12:58:14;;;;;;;1.70;1.30;;;12.10;42.40;;;;;;4965000;28;20526;-57
2021/12/07 13:01:08;;;;;;;4.03;1.50;;;12.30;43.00;;;;;;4965388;28;20965;-56
2021/12/07 13:04:10;;;;;;;1.37;1.10;;;12.40;43.50;;;;;;4964943;28;20454;-55
2021/12/07 13:06:46;;;;;;;4.03;1.07;;;12.20;42.60;;;;;;4959006;28;20447;-55
2021/12/07 13:09:18;;;;;;;3.80;1.30;;;12.00;42.30;;;;;;4963935;28;20521;-56
2021/12/07 13:12:02;;;;;;;4.03;1.93;;;12.10;42.80;;;;;;4966227;28;20455;-55
2021/12/07 13:14:54;;;;;;;2.37;1.20;;;12.10;43.50;;;;;;4961033;28;20633;-54
2021/12/07 13:17:32;;;;;;;2.97;1.20;;;12.20;43.60;;;;;;4956075;28;20874;-54
2021/12/07 13:20:05;;;;;;;3.63;1.23;;;12.40;43.70;;;;;;4963093;28;20479;-51
2021/12/07 13:22:49;;;;;;;3.13;1.37;;;12.40;44.50;;;;;;4966460;28;20604;-54
2021/12/07 13:25:27;;;;;;;5.87;1.40;;;12.60;44.50;;;;;;4973135;28;20453;-56
2021/12/07 13:28:13;;;;;;;2.40;1.37;;;12.70;44.40;;;;;;4972654;28;20912;-51
2021/12/07 13:30:45;;;;;;;3.70;1.30;;;12.50;43.60;;;;;;4966724;28;20438;-54
2021/12/07 13:33:16;;;;;;;5.50;1.40;;;12.50;44.50;;;;;;4967744;28;20526;-54
2021/12/07 13:35:42;;;;;;;3.10;1.20;;;12.60;44.20;;;;;;4964390;28;20518;-54
2021/12/07 13:38:26;;;;;;;8.33;1.50;;;12.40;43.50;;;;;;4962659;28;20947;-56
2021/12/07 13:41:32;;;;;;;4.60;1.30;;;12.30;43.70;;;;;;4966737;28;20218;-53
2021/12/07 13:43:57;;;;;;;3.23;1.40;;;12.40;44.40;;;;;;4922739;29;20451;-55
2021/12/07 13:46:27;;;;;;;2.97;1.90;;;12.50;44.80;;;;;;4924260;29;20440;-52
2021/12/07 13:49:06;;;;;;;3.03;1.43;;;12.60;44.70;;;;;;4946504;28;20318;-53
2021/12/07 13:51:32;;;;;;;2.50;1.10;;;12.70;45.20;;;;;;4964650;28;20442;-53
2021/12/07 13:54:00;;;;;;;5.10;1.20;;;12.80;44.80;;;;;;4971547;28;20844;-55
2021/12/07 13:56:26;;;;;;;2.20;1.17;;;12.90;44.50;;;;;;4969207;28;20215;-55
2021/12/07 13:58:51;;;;;;;3.20;1.00;;;13.00;44.20;;;;;;4965318;28;20446;-53
2021/12/07 14:01:17;;;;;;;7.13;1.47;;;12.90;43.80;;;;;;4966982;28;20204;-55
2021/12/07 14:03:44;;;;;;;3.40;1.40;;;13.10;44.00;;;;;;4969183;28;20226;-54
2021/12/07 14:06:10;;;;;;;1.20;1.10;;;13.20;43.40;;;;;;4968695;28;20719;-52
2021/12/07 14:08:35;;;;;;;4.67;1.20;;;13.10;42.40;;;;;;4969059;28;20446;-51
2021/12/07 14:11:02;;;;;;;3.60;1.33;;;12.90;41.80;;;;;;4970497;28;20566;-56
2021/12/07 14:13:27;;;;;;;6.90;1.80;;;12.80;42.30;;;;;;4967432;28;20199;-54
2021/12/07 14:15:53;;;;;;;3.13;1.13;;;12.50;42.50;;;;;;4972383;28;20899;-55
2021/12/07 14:18:23;;;;;;;7.87;2.53;;;12.20;43.50;;;;;;4971249;28;20192;-54
2021/12/07 14:20:59;;;;;;;3.53;1.40;;;12.20;44.10;;;;;;4972777;28;20526;-55
2021/12/07 14:23:30;;;;;;;3.50;1.67;;;12.40;44.30;;;;;;4968141;28;20941;-57
2021/12/07 14:26:17;;;;;;;2.87;1.20;;;12.60;44.40;;;;;;4964966;28;20510;-53
2021/12/07 14:29:02;;;;;;;2.30;1.27;;;12.60;44.00;;;;;;4966118;28;20445;-51
2021/12/07 14:31:37;;;;;;;3.10;1.33;;;12.60;43.80;;;;;;4970007;28;20490;-51
2021/12/07 14:34:06;;;;;;;2.00;1.10;;;12.60;43.60;;;;;;4967577;28;20525;-55
2021/12/07 14:36:36;;;;;;;2.83;1.10;;;12.70;44.10;;;;;;4969762;28;20494;-50
2021/12/07 14:39:08;;;;;;;3.77;1.10;;;12.60;43.40;;;;;;4970582;28;20462;-49
2021/12/07 14:41:42;;;;;;;2.67;2.10;;;12.60;43.60;;;;;;4971682;28;20481;-50
2021/12/07 14:44:08;;;;;;;3.83;1.13;;;12.70;43.30;;;;;;4966228;28;20438;-50
2021/12/07 14:46:35;;;;;;;4.37;1.60;;;12.70;43.20;;;;;;4968702;28;20449;-50